Terminal Aerodrome Forecast
Issued by NWS

Home | Current Version | Previous Version | Text Only | Print | Product List | Glossary On
Versions: 1 2 3 4 5 6 7 8 9 10 11 12 13 14 15 16 17 18
000
FTUS41 KBOX 061934 AAA
TAFBED
TAF AMD
KBED 061934Z 0620/0718 08008KT P6SM SCT020 BKN050
     FM062200 10009KT P6SM OVC020
     FM070100 08006KT P6SM VCSH OVC008
     FM070500 05005KT 2SM BR OVC003
     FM071500 06005KT 2SM BR BKN008=

USA.gov is the U.S. government's official web portal to all federal, state and local government web resources and services.